To NAV CANADA Home Page Login to a new session Search on AWWS site Disclaimer Vers la page française équivalente Tips FAQ What's new on the site To the Forecasts and Observations / NOTAM section To "File a Flight Plan" website Publications and other links Update of the User's profile FIC Telephone Numbers My Weather Data Folder Route Weather Data Regional Weather Data Local Weather Data To the Forecasts and Observations / NOTAM section
Request Generated 11/16/2018 at 01:07:26 UTC . Weather information available at that time is displayed.

METAR/TAF

ARVIAT/NU    (show WxCam)

METAR CYEK 160100Z AUTO 32015G20KT 9SM CLR M28/M31 A3033 RMK SLP274=
METAR CYEK 160000Z AUTO 32014KT 9SM CLR M26/M30 A3035 RMK SLP279=
METAR CYEK 152300Z 33015KT 15SM SKC M27/M30 A3033 RMK -25.7/-28.5/0.1MM/LST STFD OBS/NXT 161300Z SLP274=

TAF CYEK 152338Z 1600/1612 33015KT P6SM IC SKC TEMPO 1600/1612 5SM IC
RMK NXT FCST BY 160600Z=
Your time UTC time
Weather data provided by Environment Canada and NAV CANADA